Time;durP1;ratioP1;P1;durP2;ratioP2;P2;SDS_P1;SDS_P2;PMS_P1;PMS_P2;Temp;Humidity;BMP_temperature;BMP_pressure;BME280_temperature;BME280_humidity;BME280_pressure;Samples;Min_cycle;Max_cycle;Signal;HPM_P1;HPM_P2
2023/01/21 00:00:09;;;;;;;19.80;13.50;;;;;;;-128.00;-1.00;-1.00;105732;1253;1004110;-71
2023/01/21 00:02:56;;;;;;;20.50;14.30;;;;;;;-128.00;-1.00;-1.00;105470;1252;1045608;-71
2023/01/21 00:05:23;;;;;;;19.70;14.00;;;;;;;-128.00;-1.00;-1.00;105372;1252;1004323;-71
2023/01/21 00:07:49;;;;;;;18.80;14.50;;;;;;;-128.00;-1.00;-1.00;105747;1254;1005082;-70
2023/01/21 00:10:17;;;;;;;18.50;14.90;;;;;;;-128.00;-1.00;-1.00;105723;1253;1004586;-70
2023/01/21 00:12:44;;;;;;;18.40;13.60;;;;;;;-128.00;-1.00;-1.00;105734;1252;1003875;-70
2023/01/21 00:15:10;;;;;;;20.50;14.30;;;;;;;-128.00;-1.00;-1.00;105392;1253;1004941;-70
2023/01/21 00:17:37;;;;;;;19.40;13.90;;;;;;;-128.00;-1.00;-1.00;105748;1252;1003558;-70
2023/01/21 00:20:05;;;;;;;19.60;14.70;;;;;;;-128.00;-1.00;-1.00;105808;1252;1004320;-70
2023/01/21 00:22:32;;;;;;;19.80;14.70;;;;;;;-128.00;-1.00;-1.00;105821;1252;1004270;-70
2023/01/21 00:24:58;;;;;;;19.60;15.00;;;;;;;-128.00;-1.00;-1.00;105613;1253;1004653;-70
2023/01/21 00:27:25;;;;;;;21.90;14.50;;;;;;;-128.00;-1.00;-1.00;105729;1253;1004675;-69
2023/01/21 00:29:52;;;;;;;21.10;15.10;;;;;;;-128.00;-1.00;-1.00;105449;1252;1003696;-69
2023/01/21 00:32:18;;;;;;;19.80;15.10;;;;;;;-128.00;-1.00;-1.00;105718;1253;1003988;-69
2023/01/21 00:34:45;;;;;;;22.60;16.10;;;;;;;-128.00;-1.00;-1.00;105478;1253;1004952;-69
2023/01/21 00:37:12;;;;;;;18.70;15.10;;;;;;;-128.00;-1.00;-1.00;105679;1253;1003980;-69
2023/01/21 00:39:41;;;;;;;20.10;15.00;;;;;;;-128.00;-1.00;-1.00;105733;1252;1004832;-70
2023/01/21 00:42:10;;;;;;;17.40;13.60;;;;;;;-128.00;-1.00;-1.00;105772;1251;1047116;-70
2023/01/21 00:44:37;;;;;;;20.90;14.40;;;;;;;-128.00;-1.00;-1.00;105440;1253;1062917;-69
2023/01/21 00:47:04;;;;;;;19.60;15.00;;;;;;;-128.00;-1.00;-1.00;105746;1251;1005106;-70
2023/01/21 00:49:31;;;;;;;20.90;14.40;;;;;;;-128.00;-1.00;-1.00;105752;1251;1004070;-70
2023/01/21 00:51:58;;;;;;;19.70;15.20;;;;;;;-128.00;-1.00;-1.00;105738;1252;1003594;-69
2023/01/21 00:54:27;;;;;;;16.90;13.50;;;;;;;-128.00;-1.00;-1.00;105401;1252;1004403;-70
2023/01/21 00:56:54;;;;;;;19.00;13.20;;;;;;;-128.00;-1.00;-1.00;105792;1253;1061335;-70
2023/01/21 00:59:21;;;;;;;17.50;12.40;;;;;;;-128.00;-1.00;-1.00;105766;1251;1003625;-70
2023/01/21 01:01:47;;;;;;;18.20;12.70;;;;;;;-128.00;-1.00;-1.00;105811;1252;1005177;-70
2023/01/21 01:04:14;;;;;;;17.60;13.50;;;;;;;-128.00;-1.00;-1.00;105445;1251;1004578;-70
2023/01/21 01:06:41;;;;;;;18.30;14.20;;;;;;;-128.00;-1.00;-1.00;105773;1253;1004373;-70
2023/01/21 01:09:08;;;;;;;18.20;13.40;;;;;;;-128.00;-1.00;-1.00;105781;1253;1004270;-70
2023/01/21 01:11:35;;;;;;;20.00;14.10;;;;;;;-128.00;-1.00;-1.00;105748;1253;1004818;-70
2023/01/21 01:14:02;;;;;;;19.80;14.60;;;;;;;-128.00;-1.00;-1.00;105405;1253;1004274;-70
2023/01/21 01:16:28;;;;;;;22.30;15.50;;;;;;;-128.00;-1.00;-1.00;105762;1253;1004133;-70
2023/01/21 01:18:55;;;;;;;25.30;15.60;;;;;;;-128.00;-1.00;-1.00;105802;1253;1005146;-68
2023/01/21 01:21:22;;;;;;;27.10;14.70;;;;;;;-128.00;-1.00;-1.00;105464;1252;1004609;-69
2023/01/21 01:23:51;;;;;;;30.00;16.50;;;;;;;-128.00;-1.00;-1.00;105440;1252;1005256;-69
2023/01/21 01:26:19;;;;;;;23.00;16.60;;;;;;;-128.00;-1.00;-1.00;105783;1253;1060643;-69
2023/01/21 01:28:46;;;;;;;20.30;14.40;;;;;;;-128.00;-1.00;-1.00;105755;1253;1045916;-69
2023/01/21 01:31:18;;;;;;;20.40;13.90;;;;;;;-128.00;-1.00;-1.00;105735;1252;1004662;-69
2023/01/21 01:33:45;;;;;;;20.10;14.20;;;;;;;-128.00;-1.00;-1.00;105812;1251;1061360;-69
2023/01/21 01:36:15;;;;;;;23.30;15.20;;;;;;;-128.00;-1.00;-1.00;105738;1253;1003484;-68
2023/01/21 01:38:42;;;;;;;24.90;16.80;;;;;;;-128.00;-1.00;-1.00;105798;1252;1060823;-69
2023/01/21 01:41:16;;;;;;;36.00;19.00;;;;;;;-128.00;-1.00;-1.00;105746;1252;1004418;-68
2023/01/21 01:43:56;;;;;;;40.80;22.60;;;;;;;-128.00;-1.00;-1.00;105810;1253;1047438;-69
2023/01/21 01:46:27;;;;;;;42.10;23.50;;;;;;;-128.00;-1.00;-1.00;105699;1253;1060972;-69
2023/01/21 01:49:15;;;;;;;34.60;19.30;;;;;;;-128.00;-1.00;-1.00;105739;1253;1056614;-69
2023/01/21 01:51:47;;;;;;;33.50;18.80;;;;;;;-128.00;-1.00;-1.00;105730;1252;1058809;-68
2023/01/21 01:54:22;;;;;;;39.10;21.00;;;;;;;-128.00;-1.00;-1.00;105721;1254;1046143;-68
2023/01/21 01:56:53;;;;;;;30.30;18.80;;;;;;;-128.00;-1.00;-1.00;105722;1251;1047746;-68
2023/01/21 01:59:20;;;;;;;23.20;16.50;;;;;;;-128.00;-1.00;-1.00;105664;1252;1061151;-68
2023/01/21 02:01:48;;;;;;;21.90;15.10;;;;;;;-128.00;-1.00;-1.00;105792;1253;1003648;-68
2023/01/21 02:04:22;;;;;;;22.70;14.50;;;;;;;-128.00;-1.00;-1.00;105446;1253;1004318;-68
2023/01/21 02:06:51;;;;;;;22.60;14.10;;;;;;;-128.00;-1.00;-1.00;105754;1253;1045732;-68
2023/01/21 02:09:18;;;;;;;19.50;12.80;;;;;;;-128.00;-1.00;-1.00;105737;1253;1047956;-68
2023/01/21 02:11:44;;;;;;;19.30;13.00;;;;;;;-128.00;-1.00;-1.00;105780;1253;1003916;-68
2023/01/21 02:14:11;;;;;;;19.40;13.90;;;;;;;-128.00;-1.00;-1.00;105696;1253;1005608;-69
2023/01/21 02:16:55;;;;;;;17.50;13.30;;;;;;;-128.00;-1.00;-1.00;105706;1252;1003542;-70
2023/01/21 02:19:41;;;;;;;15.80;12.30;;;;;;;-128.00;-1.00;-1.00;105711;1252;1045379;-68
2023/01/21 02:22:23;;;;;;;15.90;12.70;;;;;;;-128.00;-1.00;-1.00;105044;1251;1047428;-68
2023/01/21 02:24:52;;;;;;;19.30;13.30;;;;;;;-128.00;-1.00;-1.00;105708;1254;1062107;-68
2023/01/21 02:27:43;;;;;;;19.20;13.30;;;;;;;-128.00;-1.00;-1.00;105745;1252;1056181;-69
2023/01/21 02:30:28;;;;;;;19.50;14.90;;;;;;;-128.00;-1.00;-1.00;105757;1254;1059211;-68
2023/01/21 02:33:12;;;;;;;21.90;17.30;;;;;;;-128.00;-1.00;-1.00;105730;1253;1045395;-68
2023/01/21 02:35:49;;;;;;;22.50;18.20;;;;;;;-128.00;-1.00;-1.00;105718;1253;1047799;-69
2023/01/21 02:38:30;;;;;;;21.90;16.90;;;;;;;-128.00;-1.00;-1.00;105752;1252;1061960;-69
2023/01/21 02:41:05;;;;;;;23.40;17.40;;;;;;;-128.00;-1.00;-1.00;105742;1255;1055413;-69
2023/01/21 02:43:46;;;;;;;26.40;19.00;;;;;;;-128.00;-1.00;-1.00;105737;1254;1059041;-70
2023/01/21 02:46:20;;;;;;;21.80;17.30;;;;;;;-128.00;-1.00;-1.00;105731;1253;1045464;-68
2023/01/21 02:48:55;;;;;;;20.30;16.10;;;;;;;-128.00;-1.00;-1.00;105403;1253;1048233;-70
2023/01/21 02:51:22;;;;;;;20.90;15.50;;;;;;;-128.00;-1.00;-1.00;105741;1252;1061913;-69
2023/01/21 02:53:50;;;;;;;18.60;14.80;;;;;;;-128.00;-1.00;-1.00;105690;1252;1004387;-69
2023/01/21 02:56:23;;;;;;;17.50;14.70;;;;;;;-128.00;-1.00;-1.00;105741;1251;1004253;-69
2023/01/21 02:58:55;;;;;;;17.20;13.40;;;;;;;-128.00;-1.00;-1.00;105445;1252;1046153;-69
2023/01/21 03:02:03;;;;;;;19.50;15.20;;;;;;;-128.00;-1.00;-1.00;105721;1252;1045966;-69
2023/01/21 03:04:59;;;;;;;21.90;15.80;;;;;;;-128.00;-1.00;-1.00;105244;1262;1062196;-69
2023/01/21 03:07:26;;;;;;;18.90;14.30;;;;;;;-128.00;-1.00;-1.00;105295;1257;1055091;-69
2023/01/21 03:09:59;;;;;;;15.60;12.70;;;;;;;-128.00;-1.00;-1.00;105228;1258;1004742;-69
2023/01/21 03:12:55;;;;;;;17.80;13.60;;;;;;;-128.00;-1.00;-1.00;105269;1257;1045709;-69
2023/01/21 03:18:39;;;;;;;17.90;13.50;;;;;;;-128.00;-1.00;-1.00;105276;1257;1060880;-69
2023/01/21 03:21:14;;;;;;;18.00;13.70;;;;;;;-128.00;-1.00;-1.00;104885;1267;1056044;-70
2023/01/21 03:23:44;;;;;;;16.00;13.10;;;;;;;-128.00;-1.00;-1.00;104895;1264;1060150;-69
2023/01/21 03:26:12;;;;;;;;;;;;;;;-128.00;-1.00;-1.00;104892;1264;1045043;-69
2023/01/21 03:28:46;;;;;;;19.00;14.80;;;;;;;-128.00;-1.00;-1.00;104791;1264;1005191;-69
2023/01/21 03:31:32;;;;;;;17.60;14.40;;;;;;;-128.00;-1.00;-1.00;104884;1265;1062341;-69
2023/01/21 03:34:02;;;;;;;17.00;13.20;;;;;;;-128.00;-1.00;-1.00;104725;1264;1057019;-69
2023/01/21 03:36:47;;;;;;;14.30;10.70;;;;;;;-128.00;-1.00;-1.00;104893;1264;1058866;-69
2023/01/21 03:39:42;;;;;;;15.30;12.10;;;;;;;-128.00;-1.00;-1.00;104875;1265;1046751;-69
2023/01/21 03:42:09;;;;;;;15.40;11.50;;;;;;;-128.00;-1.00;-1.00;105085;1263;1047613;-69
2023/01/21 03:44:37;;;;;;;16.40;11.20;;;;;;;-128.00;-1.00;-1.00;105121;1260;1004727;-69
2023/01/21 03:47:16;;;;;;;14.30;10.50;;;;;;;-128.00;-1.00;-1.00;105126;1260;1005025;-69
2023/01/21 03:49:51;;;;;;;17.10;11.90;;;;;;;-128.00;-1.00;-1.00;105129;1260;1058406;-69
2023/01/21 03:52:20;;;;;;;19.90;14.10;;;;;;;-128.00;-1.00;-1.00;105107;1260;1045513;-68
2023/01/21 03:54:48;;;;;;;16.40;12.60;;;;;;;-128.00;-1.00;-1.00;105125;1260;1047810;-68
2023/01/21 03:57:15;;;;;;;16.10;13.00;;;;;;;-128.00;-1.00;-1.00;105123;1261;1003939;-69
2023/01/21 03:59:41;;;;;;;13.90;11.80;;;;;;;-128.00;-1.00;-1.00;105718;1253;1004050;-69
2023/01/21 04:02:08;;;;;;;16.40;12.30;;;;;;;-128.00;-1.00;-1.00;105706;1253;1004969;-69
2023/01/21 04:04:35;;;;;;;15.20;12.00;;;;;;;-128.00;-1.00;-1.00;105426;1253;1004270;-69
2023/01/21 04:07:02;;;;;;;16.20;12.40;;;;;;;-128.00;-1.00;-1.00;105725;1253;1004867;-69
2023/01/21 04:09:29;;;;;;;15.30;11.90;;;;;;;-128.00;-1.00;-1.00;105713;1254;1004759;-69
2023/01/21 04:11:56;;;;;;;14.60;11.90;;;;;;;-128.00;-1.00;-1.00;105705;1252;1004196;-69
2023/01/21 04:14:23;;;;;;;18.00;13.60;;;;;;;-128.00;-1.00;-1.00;105703;1253;1004908;-69
2023/01/21 04:16:50;;;;;;;17.70;13.80;;;;;;;-128.00;-1.00;-1.00;105736;1251;1004502;-68
2023/01/21 04:19:16;;;;;;;18.40;14.80;;;;;;;-128.00;-1.00;-1.00;105695;1254;1004037;-69
2023/01/21 04:21:43;;;;;;;19.80;16.20;;;;;;;-128.00;-1.00;-1.00;105759;1253;1004810;-68
2023/01/21 04:24:09;;;;;;;18.10;14.70;;;;;;;-128.00;-1.00;-1.00;105703;1254;1004738;-68
2023/01/21 04:26:36;;;;;;;14.80;13.30;;;;;;;-128.00;-1.00;-1.00;105721;1253;1005193;-68
2023/01/21 04:29:03;;;;;;;18.00;14.30;;;;;;;-128.00;-1.00;-1.00;105687;1253;1004200;-69
2023/01/21 04:31:29;;;;;;;18.40;14.70;;;;;;;-128.00;-1.00;-1.00;105684;1253;1005065;-69
2023/01/21 04:33:56;;;;;;;18.40;14.10;;;;;;;-128.00;-1.00;-1.00;105735;1253;1003462;-69
2023/01/21 04:36:23;;;;;;;16.70;13.00;;;;;;;-128.00;-1.00;-1.00;105461;1253;1004078;-69
2023/01/21 04:38:49;;;;;;;15.80;13.40;;;;;;;-128.00;-1.00;-1.00;105690;1253;1004593;-69
2023/01/21 04:41:16;;;;;;;18.90;14.40;;;;;;;-128.00;-1.00;-1.00;105702;1254;1004333;-69
2023/01/21 04:43:43;;;;;;;16.60;13.60;;;;;;;-128.00;-1.00;-1.00;105732;1252;1003327;-69
2023/01/21 04:46:09;;;;;;;19.10;14.90;;;;;;;-128.00;-1.00;-1.00;105683;1253;1004387;-69
2023/01/21 04:48:36;;;;;;;16.20;14.30;;;;;;;-128.00;-1.00;-1.00;105723;1254;1004357;-69
2023/01/21 04:51:05;;;;;;;18.90;15.20;;;;;;;-128.00;-1.00;-1.00;105713;1253;1004343;-70
2023/01/21 04:53:31;;;;;;;18.50;15.60;;;;;;;-128.00;-1.00;-1.00;105680;1251;1045810;-69
2023/01/21 04:55:58;;;;;;;16.50;14.10;;;;;;;-128.00;-1.00;-1.00;105702;1253;1003541;-70
2023/01/21 04:58:26;;;;;;;16.40;14.40;;;;;;;-128.00;-1.00;-1.00;105738;1253;1004694;-69
2023/01/21 05:00:54;;;;;;;19.30;14.70;;;;;;;-128.00;-1.00;-1.00;105426;1252;1004016;-69
2023/01/21 05:03:20;;;;;;;22.00;15.80;;;;;;;-128.00;-1.00;-1.00;105655;1253;1004416;-68
2023/01/21 05:05:47;;;;;;;19.60;16.50;;;;;;;-128.00;-1.00;-1.00;105767;1252;1004120;-69
2023/01/21 05:08:14;;;;;;;20.60;15.80;;;;;;;-128.00;-1.00;-1.00;105730;1252;1004094;-69
2023/01/21 05:10:40;;;;;;;19.00;14.80;;;;;;;-128.00;-1.00;-1.00;105739;1252;1004277;-69
2023/01/21 05:13:07;;;;;;;15.70;13.90;;;;;;;-128.00;-1.00;-1.00;105712;1253;1004593;-69
2023/01/21 05:15:34;;;;;;;16.20;13.50;;;;;;;-128.00;-1.00;-1.00;105690;1254;1003917;-69
2023/01/21 05:18:00;;;;;;;19.10;14.00;;;;;;;-128.00;-1.00;-1.00;105666;1253;1003464;-69
2023/01/21 05:20:27;;;;;;;17.60;13.30;;;;;;;-128.00;-1.00;-1.00;105680;1252;1004610;-70
2023/01/21 05:22:54;;;;;;;17.50;12.60;;;;;;;-128.00;-1.00;-1.00;105734;1252;1003453;-70
2023/01/21 05:25:20;;;;;;;13.90;11.40;;;;;;;-128.00;-1.00;-1.00;105734;1252;1004650;-69
2023/01/21 05:27:53;;;;;;;15.20;11.70;;;;;;;-128.00;-1.00;-1.00;105658;1253;1005192;-70
2023/01/21 05:30:20;;;;;;;18.80;13.50;;;;;;;-128.00;-1.00;-1.00;105687;1252;1046125;-70
2023/01/21 05:32:52;;;;;;;19.30;13.90;;;;;;;-128.00;-1.00;-1.00;105735;1252;1005031;-70
2023/01/21 05:35:21;;;;;;;16.60;12.70;;;;;;;-128.00;-1.00;-1.00;105760;1252;1061004;-70
2023/01/21 05:37:48;;;;;;;17.00;12.30;;;;;;;-128.00;-1.00;-1.00;105694;1252;1055339;-70
2023/01/21 05:40:15;;;;;;;13.70;11.70;;;;;;;-128.00;-1.00;-1.00;105627;1252;1005151;-69
2023/01/21 05:42:42;;;;;;;15.20;11.70;;;;;;;-128.00;-1.00;-1.00;105782;1252;1003776;-70
2023/01/21 05:45:10;;;;;;;14.10;11.10;;;;;;;-128.00;-1.00;-1.00;105765;1253;1004140;-70
2023/01/21 05:47:37;;;;;;;15.80;12.50;;;;;;;-128.00;-1.00;-1.00;105773;1255;1003290;-70
2023/01/21 05:50:04;;;;;;;15.20;13.10;;;;;;;-128.00;-1.00;-1.00;105420;1254;1004591;-70
2023/01/21 05:52:31;;;;;;;13.60;11.80;;;;;;;-128.00;-1.00;-1.00;105697;1254;1004898;-70
2023/01/21 05:54:57;;;;;;;16.30;11.60;;;;;;;-128.00;-1.00;-1.00;105692;1253;1004462;-70
2023/01/21 05:57:24;;;;;;;14.00;11.90;;;;;;;-128.00;-1.00;-1.00;105640;1252;1004095;-70
2023/01/21 05:59:51;;;;;;;13.30;11.50;;;;;;;-128.00;-1.00;-1.00;105705;1253;1004319;-70
2023/01/21 06:02:18;;;;;;;13.50;12.00;;;;;;;-128.00;-1.00;-1.00;104678;1257;1004350;-69
2023/01/21 06:04:44;;;;;;;16.00;12.40;;;;;;;-128.00;-1.00;-1.00;105697;1252;1003703;-69
2023/01/21 06:07:11;;;;;;;13.40;11.50;;;;;;;-128.00;-1.00;-1.00;105686;1252;1004369;-69
2023/01/21 06:09:38;;;;;;;15.90;12.50;;;;;;;-128.00;-1.00;-1.00;105683;1252;1003863;-70
2023/01/21 06:12:04;;;;;;;14.60;12.80;;;;;;;-128.00;-1.00;-1.00;105756;1252;1004024;-70
2023/01/21 06:14:31;;;;;;;14.80;12.00;;;;;;;-128.00;-1.00;-1.00;105694;1252;1004271;-70
2023/01/21 06:16:58;;;;;;;15.00;12.40;;;;;;;-128.00;-1.00;-1.00;105677;1253;1003798;-69
2023/01/21 06:19:24;;;;;;;16.00;13.20;;;;;;;-128.00;-1.00;-1.00;105709;1253;1003874;-69
2023/01/21 06:21:52;;;;;;;17.30;12.50;;;;;;;-128.00;-1.00;-1.00;105450;1254;1004154;-70
2023/01/21 06:24:18;;;;;;;17.70;13.20;;;;;;;-128.00;-1.00;-1.00;105709;1253;1004853;-70
2023/01/21 06:26:45;;;;;;;17.60;13.90;;;;;;;-128.00;-1.00;-1.00;105704;1253;1004697;-70
2023/01/21 06:29:11;;;;;;;17.80;13.70;;;;;;;-128.00;-1.00;-1.00;105696;1252;1004157;-70
2023/01/21 06:31:39;;;;;;;16.00;12.50;;;;;;;-128.00;-1.00;-1.00;105691;1252;1003469;-69
2023/01/21 06:34:05;;;;;;;15.20;12.60;;;;;;;-128.00;-1.00;-1.00;105611;1252;1003490;-70
2023/01/21 06:36:32;;;;;;;14.40;11.90;;;;;;;-128.00;-1.00;-1.00;105716;1252;1003879;-70
2023/01/21 06:38:58;;;;;;;14.60;11.40;;;;;;;-128.00;-1.00;-1.00;105705;1252;1004366;-70
2023/01/21 06:41:25;;;;;;;15.60;12.80;;;;;;;-128.00;-1.00;-1.00;105715;1252;1004506;-70
2023/01/21 06:43:52;;;;;;;15.80;12.50;;;;;;;-128.00;-1.00;-1.00;105335;1253;1003914;-70
2023/01/21 06:46:18;;;;;;;13.60;11.90;;;;;;;-128.00;-1.00;-1.00;105747;1252;1004359;-70
2023/01/21 06:48:45;;;;;;;14.30;12.30;;;;;;;-128.00;-1.00;-1.00;105464;1253;1003310;-70
2023/01/21 06:51:11;;;;;;;15.50;12.70;;;;;;;-128.00;-1.00;-1.00;105722;1252;1004047;-70
2023/01/21 06:53:38;;;;;;;15.10;13.00;;;;;;;-128.00;-1.00;-1.00;105661;1252;1004949;-70
2023/01/21 06:56:06;;;;;;;16.10;13.10;;;;;;;-128.00;-1.00;-1.00;105698;1252;1005239;-71
2023/01/21 06:58:32;;;;;;;14.50;12.70;;;;;;;-128.00;-1.00;-1.00;105718;1251;1004038;-71
2023/01/21 07:00:59;;;;;;;15.50;12.70;;;;;;;-128.00;-1.00;-1.00;105729;1252;1003508;-69
2023/01/21 07:03:26;;;;;;;12.90;11.20;;;;;;;-128.00;-1.00;-1.00;105717;1252;1004015;-70
2023/01/21 07:05:52;;;;;;;16.10;12.90;;;;;;;-128.00;-1.00;-1.00;105651;1252;1004967;-70
2023/01/21 07:08:19;;;;;;;14.50;12.70;;;;;;;-128.00;-1.00;-1.00;105670;1252;1004369;-71
2023/01/21 07:10:46;;;;;;;17.60;14.70;;;;;;;-128.00;-1.00;-1.00;105717;1252;1004905;-70
2023/01/21 07:13:12;;;;;;;18.20;14.70;;;;;;;-128.00;-1.00;-1.00;105695;1252;1004294;-71
2023/01/21 07:15:39;;;;;;;16.50;14.40;;;;;;;-128.00;-1.00;-1.00;105725;1252;1003831;-71
2023/01/21 07:18:06;;;;;;;19.70;15.80;;;;;;;-128.00;-1.00;-1.00;105674;1252;1004072;-71
2023/01/21 07:20:33;;;;;;;14.80;13.10;;;;;;;-128.00;-1.00;-1.00;105681;1252;1005068;-71
2023/01/21 07:22:59;;;;;;;15.70;13.30;;;;;;;-128.00;-1.00;-1.00;105689;1252;1004766;-71
2023/01/21 07:25:26;;;;;;;16.50;14.20;;;;;;;-128.00;-1.00;-1.00;105728;1252;1004086;-71
2023/01/21 07:27:53;;;;;;;16.10;14.40;;;;;;;-128.00;-1.00;-1.00;104946;1252;1004089;-71
2023/01/21 07:30:20;;;;;;;15.80;14.10;;;;;;;-128.00;-1.00;-1.00;105684;1252;1003993;-72
2023/01/21 07:32:47;;;;;;;17.50;14.80;;;;;;;-128.00;-1.00;-1.00;105489;1252;1003956;-70
2023/01/21 07:35:14;;;;;;;14.60;13.00;;;;;;;-128.00;-1.00;-1.00;105731;1252;1004255;-71
2023/01/21 07:37:41;;;;;;;14.50;12.90;;;;;;;-128.00;-1.00;-1.00;105688;1252;1004820;-72
2023/01/21 07:40:08;;;;;;;15.10;13.50;;;;;;;-128.00;-1.00;-1.00;105723;1252;1003613;-71
2023/01/21 07:42:35;;;;;;;16.90;13.20;;;;;;;-128.00;-1.00;-1.00;105300;1252;1003988;-72
2023/01/21 07:45:02;;;;;;;16.10;14.00;;;;;;;-128.00;-1.00;-1.00;105688;1252;1004286;-70
2023/01/21 07:47:29;;;;;;;19.10;14.50;;;;;;;-128.00;-1.00;-1.00;105719;1252;1003964;-71
2023/01/21 07:49:56;;;;;;;17.40;13.70;;;;;;;-128.00;-1.00;-1.00;105626;1251;1004407;-71
2023/01/21 07:52:23;;;;;;;15.90;13.80;;;;;;;-128.00;-1.00;-1.00;105722;1252;1003647;-71
2023/01/21 07:54:50;;;;;;;18.80;16.30;;;;;;;-128.00;-1.00;-1.00;105409;1252;1004703;-70
2023/01/21 07:57:16;;;;;;;22.00;19.40;;;;;;;-128.00;-1.00;-1.00;105711;1252;1004158;-70
2023/01/21 07:59:43;;;;;;;17.60;14.30;;;;;;;-128.00;-1.00;-1.00;105709;1252;1003652;-71
2023/01/21 08:02:11;;;;;;;18.20;15.80;;;;;;;-128.00;-1.00;-1.00;105638;1252;1004638;-71
2023/01/21 08:04:38;;;;;;;19.60;15.30;;;;;;;-128.00;-1.00;-1.00;105682;1252;1004462;-69
2023/01/21 08:07:08;;;;;;;20.80;16.10;;;;;;;-128.00;-1.00;-1.00;105678;1252;1004720;-71
2023/01/21 08:09:37;;;;;;;16.40;14.40;;;;;;;-128.00;-1.00;-1.00;105679;1252;1047389;-70
2023/01/21 08:12:06;;;;;;;24.30;18.30;;;;;;;-128.00;-1.00;-1.00;105760;1253;1047199;-70
2023/01/21 08:14:32;;;;;;;16.10;14.20;;;;;;;-128.00;-1.00;-1.00;105526;1252;1004055;-70
2023/01/21 08:17:00;;;;;;;17.00;14.30;;;;;;;-128.00;-1.00;-1.00;105720;1252;1004518;-71
2023/01/21 08:19:26;;;;;;;18.30;13.80;;;;;;;-128.00;-1.00;-1.00;105697;1251;1003741;-70
2023/01/21 08:21:53;;;;;;;19.10;15.20;;;;;;;-128.00;-1.00;-1.00;105673;1252;1003911;-70
2023/01/21 08:24:20;;;;;;;17.10;14.60;;;;;;;-128.00;-1.00;-1.00;105784;1252;1003492;-70
2023/01/21 08:26:47;;;;;;;17.00;14.60;;;;;;;-128.00;-1.00;-1.00;105763;1252;1004835;-70
2023/01/21 08:29:14;;;;;;;17.40;14.60;;;;;;;-128.00;-1.00;-1.00;105750;1252;1004429;-71
2023/01/21 08:31:41;;;;;;;14.90;13.30;;;;;;;-128.00;-1.00;-1.00;105382;1252;1003581;-71
2023/01/21 08:34:08;;;;;;;18.90;15.80;;;;;;;-128.00;-1.00;-1.00;105684;1252;1004816;-71
2023/01/21 08:36:37;;;;;;;17.00;14.50;;;;;;;-128.00;-1.00;-1.00;105734;1251;1004864;-71
2023/01/21 08:39:06;;;;;;;16.70;14.40;;;;;;;-128.00;-1.00;-1.00;105457;1252;1061902;-70
2023/01/21 08:41:33;;;;;;;15.40;13.20;;;;;;;-128.00;-1.00;-1.00;105699;1251;1056690;-71
2023/01/21 08:44:00;;;;;;;14.40;12.90;;;;;;;-128.00;-1.00;-1.00;105691;1252;1004084;-70
2023/01/21 08:46:27;;;;;;;14.70;13.10;;;;;;;-128.00;-1.00;-1.00;105721;1252;1004883;-71
2023/01/21 08:48:53;;;;;;;15.30;13.60;;;;;;;-128.00;-1.00;-1.00;105738;1252;1004779;-70
2023/01/21 08:51:20;;;;;;;15.10;13.60;;;;;;;-128.00;-1.00;-1.00;105709;1252;1004697;-72
2023/01/21 08:53:48;;;;;;;16.60;13.20;;;;;;;-128.00;-1.00;-1.00;105789;1252;1004467;-70
2023/01/21 08:56:17;;;;;;;15.00;11.70;;;;;;;-128.00;-1.00;-1.00;105710;1252;1058472;-70
2023/01/21 08:58:44;;;;;;;15.40;13.70;;;;;;;-128.00;-1.00;-1.00;105755;1252;1004990;-70
2023/01/21 09:01:14;;;;;;;13.70;11.50;;;;;;;-128.00;-1.00;-1.00;105738;1252;1004753;-70
2023/01/21 09:03:41;;;;;;;13.80;12.30;;;;;;;-128.00;-1.00;-1.00;105745;1252;1061510;-70
2023/01/21 09:06:10;;;;;;;13.90;11.30;;;;;;;-128.00;-1.00;-1.00;105696;1252;1004845;-70
2023/01/21 09:08:36;;;;;;;11.80;10.60;;;;;;;-128.00;-1.00;-1.00;105713;1251;1058884;-72
2023/01/21 09:11:05;;;;;;;13.10;10.70;;;;;;;-128.00;-1.00;-1.00;105409;1251;1004005;-69
2023/01/21 09:13:37;;;;;;;13.10;11.70;;;;;;;-128.00;-1.00;-1.00;105729;1252;1046367;-70
2023/01/21 09:16:09;;;;;;;25.70;18.10;;;;;;;-128.00;-1.00;-1.00;105739;1252;1061730;-72
2023/01/21 09:18:36;;;;;;;17.60;14.50;;;;;;;-128.00;-1.00;-1.00;105731;1252;1056032;-71
2023/01/21 09:21:05;;;;;;;17.00;15.30;;;;;;;-128.00;-1.00;-1.00;105706;1251;1004245;-72
2023/01/21 09:23:35;;;;;;;14.00;11.70;;;;;;;-128.00;-1.00;-1.00;105710;1251;1044901;-73
2023/01/21 09:26:06;;;;;;;14.30;11.30;;;;;;;-128.00;-1.00;-1.00;105735;1252;1047549;-71
2023/01/21 09:28:36;;;;;;;13.10;11.10;;;;;;;-128.00;-1.00;-1.00;105693;1252;1062048;-71
2023/01/21 09:31:06;;;;;;;11.20;9.90;;;;;;;-128.00;-1.00;-1.00;105734;1252;1056025;-70
2023/01/21 09:33:35;;;;;;;11.80;10.40;;;;;;;-128.00;-1.00;-1.00;105715;1251;1058513;-71
2023/01/21 09:36:04;;;;;;;12.30;11.00;;;;;;;-128.00;-1.00;-1.00;105681;1252;1046196;-71
2023/01/21 09:38:31;;;;;;;12.60;10.40;;;;;;;-128.00;-1.00;-1.00;105715;1252;1047992;-72
2023/01/21 09:41:26;;;;;;;12.10;10.00;;;;;;;-128.00;-1.00;-1.00;105697;1251;1003742;-72
2023/01/21 09:43:52;;;;;;;12.90;11.00;;;;;;;-128.00;-1.00;-1.00;105250;1258;1055416;-72
2023/01/21 09:46:28;;;;;;;13.70;11.60;;;;;;;-128.00;-1.00;-1.00;105200;1258;1004174;-72
2023/01/21 09:48:57;;;;;;;13.10;10.90;;;;;;;-128.00;-1.00;-1.00;105211;1258;1044577;-71
2023/01/21 09:51:36;;;;;;;18.50;13.10;;;;;;;-128.00;-1.00;-1.00;105087;1257;1046887;-72
2023/01/21 09:54:16;;;;;;;17.60;13.00;;;;;;;-128.00;-1.00;-1.00;105217;1258;1062134;-72
2023/01/21 09:56:59;;;;;;;17.90;12.50;;;;;;;-128.00;-1.00;-1.00;105200;1258;1055162;-72
2023/01/21 09:59:40;;;;;;;16.30;12.00;;;;;;;-128.00;-1.00;-1.00;105106;1258;1059081;-73
2023/01/21 10:02:19;;;;;;;16.80;13.60;;;;;;;-128.00;-1.00;-1.00;105226;1257;1044651;-72
2023/01/21 10:05:23;;;;;;;14.10;12.10;;;;;;;-128.00;-1.00;-1.00;105150;1258;1047221;-72
2023/01/21 10:08:20;;;;;;;15.70;12.40;;;;;;;-128.00;-1.00;-1.00;105275;1258;1062263;-72
2023/01/21 10:11:05;;;;;;;17.70;12.40;;;;;;;-128.00;-1.00;-1.00;104840;1266;1056372;-73
2023/01/21 10:13:49;;;;;;;14.00;12.20;;;;;;;-128.00;-1.00;-1.00;104763;1265;1059371;-73
2023/01/21 10:16:21;;;;;;;16.10;13.60;;;;;;;-128.00;-1.00;-1.00;104849;1265;1046028;-73
2023/01/21 10:18:52;;;;;;;18.70;14.50;;;;;;;-128.00;-1.00;-1.00;104775;1265;1047066;-73
2023/01/21 10:21:51;;;;;;;12.40;11.10;;;;;;;-128.00;-1.00;-1.00;105014;1260;1061111;-73
2023/01/21 10:24:31;;;;;;;15.90;13.00;;;;;;;-128.00;-1.00;-1.00;105085;1260;1055730;-73
2023/01/21 10:26:59;;;;;;;14.00;12.60;;;;;;;-128.00;-1.00;-1.00;105068;1260;1058634;-73
2023/01/21 10:29:26;;;;;;;14.00;12.50;;;;;;;-128.00;-1.00;-1.00;105073;1260;1003829;-73
2023/01/21 10:31:58;;;;;;;13.20;11.80;;;;;;;-128.00;-1.00;-1.00;105098;1260;1003663;-73
2023/01/21 10:34:30;;;;;;;15.30;13.50;;;;;;;-128.00;-1.00;-1.00;105081;1261;1062574;-73
2023/01/21 10:37:05;;;;;;;13.00;11.50;;;;;;;-128.00;-1.00;-1.00;105070;1260;1056078;-73
2023/01/21 10:39:37;;;;;;;12.80;11.50;;;;;;;-128.00;-1.00;-1.00;105046;1260;1058954;-73
2023/01/21 10:42:25;;;;;;;13.40;12.00;;;;;;;-128.00;-1.00;-1.00;105038;1260;1045439;-73
2023/01/21 10:45:18;;;;;;;12.60;11.30;;;;;;;-128.00;-1.00;-1.00;105070;1260;1047285;-73
2023/01/21 10:47:59;;;;;;;13.00;11.80;;;;;;;-128.00;-1.00;-1.00;105360;1252;1060957;-73
2023/01/21 10:50:55;;;;;;;14.90;12.70;;;;;;;-128.00;-1.00;-1.00;105540;1252;1056640;-73
2023/01/21 10:53:40;;;;;;;14.70;13.00;;;;;;;-128.00;-1.00;-1.00;105726;1251;1059438;-73
2023/01/21 10:56:15;;;;;;;16.00;13.00;;;;;;;-128.00;-1.00;-1.00;105676;1252;1045297;-73
2023/01/21 10:58:56;;;;;;;15.70;13.40;;;;;;;-128.00;-1.00;-1.00;105473;1252;1047823;-74
2023/01/21 11:01:33;;;;;;;14.50;12.20;;;;;;;-128.00;-1.00;-1.00;105596;1251;1061998;-73
2023/01/21 11:04:10;;;;;;;14.60;13.00;;;;;;;-128.00;-1.00;-1.00;105402;1251;1056391;-74
2023/01/21 11:06:38;;;;;;;15.50;13.90;;;;;;;-128.00;-1.00;-1.00;105711;1251;1059805;-73
2023/01/21 11:09:08;;;;;;;14.90;13.30;;;;;;;-128.00;-1.00;-1.00;105721;1251;1004084;-73
2023/01/21 11:11:36;;;;;;;13.80;12.30;;;;;;;-128.00;-1.00;-1.00;105725;1251;1046860;-73
2023/01/21 11:14:02;;;;;;;17.30;13.70;;;;;;;-128.00;-1.00;-1.00;105708;1251;1004354;-73
2023/01/21 11:16:48;;;;;;;15.80;14.20;;;;;;;-128.00;-1.00;-1.00;105735;1252;1003951;-73
2023/01/21 11:19:21;;;;;;;15.10;13.60;;;;;;;-128.00;-1.00;-1.00;105719;1252;1058872;-73